Time;durP1;ratioP1;P1;durP2;ratioP2;P2;SDS_P1;SDS_P2;PMS_P1;PMS_P2;Temp;Humidity;BMP_temperature;BMP_pressure;BME280_temperature;BME280_humidity;BME280_pressure;Samples;Min_cycle;Max_cycle;Signal;HPM_P1;HPM_P2
2022/04/05 00:01:29;;;;;;;9.85;4.65;;;;;;;4.48;97.39;99145.00;8548189;33;20475;-76
2022/04/05 00:06:33;;;;;;;9.98;5.40;;;;;;;4.31;97.78;99132.97;8528489;33;20434;-76
2022/04/05 00:11:36;;;;;;;7.50;4.27;;;;;;;4.47;98.28;99137.13;8528950;33;20424;-76
2022/04/05 00:16:39;;;;;;;8.80;4.82;;;;;;;4.45;97.46;99128.44;8528349;33;20952;-75
2022/04/05 00:21:45;;;;;;;11.07;6.18;;;;;;;4.62;96.90;99135.97;8528748;33;21224;-76
2022/04/05 00:26:48;;;;;;;11.07;5.90;;;;;;;4.51;97.25;99144.78;8527899;33;20142;-76
2022/04/05 00:31:51;;;;;;;14.13;6.72;;;;;;;4.65;97.06;99141.06;8527288;33;20181;-76
2022/04/05 00:36:56;;;;;;;13.02;7.20;;;;;;;4.57;97.28;99143.47;8528014;33;21864;-76
2022/04/05 00:42:00;;;;;;;12.80;6.78;;;;;;;4.69;96.73;99139.88;8528357;33;20336;-76
2022/04/05 00:47:17;;;;;;;13.43;6.95;;;;;;;4.55;97.26;99142.72;8527449;33;20432;-77
2022/04/05 00:52:23;;;;;;;13.88;7.30;;;;;;;4.37;98.67;99152.94;8528520;33;21129;-77
2022/04/05 00:57:29;;;;;;;12.40;7.00;;;;;;;4.45;97.23;99145.25;8549998;33;22127;-77
2022/04/05 01:02:38;;;;;;;24.85;7.38;;;;;;;4.28;98.25;99142.97;8528116;33;20431;-76
2022/04/05 01:07:47;;;;;;;8.18;4.82;;;;;;;4.42;97.54;99149.94;8527701;33;20415;-77
2022/04/05 01:12:50;;;;;;;8.20;4.90;;;;;;;4.41;96.46;99141.09;8526523;33;20465;-76
2022/04/05 01:17:55;;;;;;;5.82;3.65;;;;;;;4.34;97.53;99155.84;8527991;33;20408;-76
2022/04/05 01:22:59;;;;;;;5.90;3.72;;;;;;;4.14;97.29;99150.19;8526608;33;21597;-76
2022/04/05 01:28:04;;;;;;;7.55;3.95;;;;;;;4.38;97.03;99162.59;8531676;33;20126;-77
2022/04/05 01:33:07;;;;;;;6.75;4.15;;;;;;;4.18;97.67;99146.34;8528919;33;20135;-76
2022/04/05 01:38:11;;;;;;;6.45;3.88;;;;;;;4.18;97.34;99151.66;8527159;33;20410;-76
2022/04/05 01:43:15;;;;;;;5.80;3.05;;;;;;;4.27;96.56;99151.94;8525460;33;20916;-76
2022/04/05 01:48:18;;;;;;;6.95;3.65;;;;;;;4.01;97.14;99140.59;8527146;33;20318;-76
2022/04/05 01:53:21;;;;;;;6.45;3.83;;;;;;;3.91;97.87;99143.91;8527606;33;20443;-76
2022/04/05 01:58:26;;;;;;;7.05;3.78;;;;;;;4.32;96.57;99147.97;8526738;33;20898;-76
2022/04/05 02:03:30;;;;;;;6.38;4.10;;;;;;;4.22;97.39;99146.94;8526607;33;20445;-77
2022/04/05 02:08:36;;;;;;;5.57;3.78;;;;;;;3.99;97.33;99142.50;8526081;33;20408;-76
2022/04/05 02:13:41;;;;;;;4.63;3.83;;;;;;;3.92;97.73;99145.63;8526219;33;20298;-77
2022/04/05 02:18:44;;;;;;;4.75;2.92;;;;;;;4.09;96.52;99136.41;8524857;33;20541;-77
2022/04/05 02:23:48;;;;;;;5.40;3.70;;;;;;;4.12;96.28;99151.28;8524261;33;20398;-77
2022/04/05 02:28:58;;;;;;;4.97;4.03;;;;;;;4.09;96.25;99149.69;8524803;33;20449;-77
2022/04/05 02:34:05;;;;;;;7.88;3.17;;;;;;;4.14;96.07;99159.94;8525218;33;20472;-76
2022/04/05 02:39:13;;;;;;;5.05;3.20;;;;;;;4.11;95.94;99161.06;8524545;33;20136;-77
2022/04/05 02:44:18;;;;;;;6.10;3.47;;;;;;;4.19;95.58;99176.41;8524944;33;21281;-77
2022/04/05 02:49:23;;;;;;;5.03;3.33;;;;;;;4.15;96.04;99180.28;8524928;33;21165;-77
2022/04/05 02:54:28;;;;;;;9.80;4.82;;;;;;;4.13;95.89;99176.88;8525142;33;20830;-77
2022/04/05 02:59:35;;;;;;;8.88;5.70;;;;;;;4.20;95.55;99178.13;8523930;33;20195;-75
2022/04/05 03:04:38;;;;;;;8.82;5.03;;;;;;;4.03;96.88;99186.47;8524758;33;20135;-75
2022/04/05 03:09:44;;;;;;;13.07;6.32;;;;;;;4.12;97.57;99191.97;8524331;33;20208;-76
2022/04/05 03:14:50;;;;;;;11.88;6.70;;;;;;;4.20;97.42;99186.09;8523393;33;20426;-75
2022/04/05 03:19:58;;;;;;;10.82;6.50;;;;;;;4.26;96.85;99193.63;8522948;33;21582;-75
2022/04/05 03:25:02;;;;;;;11.88;6.50;;;;;;;4.48;96.06;99208.00;8523079;33;20645;-75
2022/04/05 03:30:09;;;;;;;12.40;6.70;;;;;;;4.39;96.26;99201.53;8528335;33;21178;-75
2022/04/05 03:35:12;;;;;;;11.63;6.53;;;;;;;4.51;95.43;99203.28;8522633;33;20384;-75
2022/04/05 03:40:17;;;;;;;10.57;5.95;;;;;;;4.37;96.08;99206.97;8522569;33;20441;-75
2022/04/05 03:45:23;;;;;;;7.72;5.90;;;;;;;4.31;95.90;99209.25;8522565;33;20124;-75
2022/04/05 03:50:26;;;;;;;10.55;5.43;;;;;;;4.23;96.21;99216.94;8523797;33;21794;-74
2022/04/05 03:55:31;;;;;;;9.50;5.63;;;;;;;4.21;96.08;99205.56;8522155;33;20481;-75
2022/04/05 04:00:38;;;;;;;7.00;4.82;;;;;;;4.19;96.01;99216.28;8523175;33;20788;-75
2022/04/05 04:05:53;;;;;;;8.68;4.55;;;;;;;4.24;94.90;99224.78;8522035;33;20231;-75
2022/04/05 04:10:58;;;;;;;9.07;5.45;;;;;;;4.25;94.47;99220.31;8523057;33;20445;-75
2022/04/05 04:16:05;;;;;;;7.57;4.63;;;;;;;4.16;94.86;99224.47;8521933;33;20407;-75
2022/04/05 04:21:12;;;;;;;7.85;4.90;;;;;;;4.22;95.67;99234.66;8522609;33;20151;-75
2022/04/05 04:26:15;;;;;;;7.28;3.50;;;;;;;4.02;95.35;99232.63;8521734;33;22177;-75
2022/04/05 04:31:20;;;;;;;6.00;4.47;;;;;;;4.25;94.65;99246.88;8522313;33;20283;-75
2022/04/05 04:36:23;;;;;;;7.53;4.18;;;;;;;4.17;94.56;99240.34;8523226;33;20383;-75
2022/04/05 04:41:26;;;;;;;5.25;4.00;;;;;;;4.15;94.15;99244.06;8523800;33;20429;-75
2022/04/05 04:46:31;;;;;;;8.95;5.03;;;;;;;4.28;93.70;99244.00;8522482;33;20465;-75
2022/04/05 04:51:34;;;;;;;6.45;4.30;;;;;;;4.09;94.21;99250.66;8528736;33;20911;-75
2022/04/05 04:56:37;;;;;;;10.45;5.13;;;;;;;4.28;94.15;99251.97;8530869;33;20379;-76
2022/04/05 05:01:41;;;;;;;8.73;5.57;;;;;;;4.17;94.01;99253.63;8533381;33;20419;-76
2022/04/05 05:06:44;;;;;;;9.88;5.60;;;;;;;4.27;94.17;99263.56;8532728;33;20219;-76
2022/04/05 05:11:47;;;;;;;7.93;5.45;;;;;;;4.22;94.37;99271.88;8533355;33;20162;-76
2022/04/05 05:16:53;;;;;;;10.35;5.72;;;;;;;4.07;93.71;99273.84;8529054;33;20409;-77
2022/04/05 05:21:56;;;;;;;7.63;4.78;;;;;;;4.01;93.97;99276.09;8527658;33;20134;-75
2022/04/05 05:26:59;;;;;;;9.13;6.15;;;;;;;4.30;93.92;99282.81;8528350;33;20399;-76
2022/04/05 05:32:05;;;;;;;11.45;5.80;;;;;;;4.42;92.75;99283.75;8533803;33;20405;-76
2022/04/05 05:37:08;;;;;;;11.48;5.78;;;;;;;4.29;93.54;99301.53;8528551;33;20425;-76
2022/04/05 05:42:12;;;;;;;7.40;4.90;;;;;;;4.26;92.42;99297.28;8528764;33;20409;-76
2022/04/05 05:47:16;;;;;;;8.32;4.78;;;;;;;4.48;92.64;99307.22;8527412;33;20888;-77
2022/04/05 05:52:19;;;;;;;8.70;4.95;;;;;;;4.53;92.25;99298.91;8528098;33;20408;-77
2022/04/05 05:57:22;;;;;;;9.93;5.53;;;;;;;4.61;92.26;99312.50;8526256;33;20220;-77
2022/04/05 06:02:26;;;;;;;8.82;3.08;;;;;;;4.64;92.37;99312.28;8527732;33;20426;-77
2022/04/05 06:07:29;;;;;;;7.03;4.03;;;;;;;4.78;91.98;99312.09;8526536;33;20424;-76
2022/04/05 06:12:33;;;;;;;11.00;5.43;;;;;;;4.86;90.59;99316.88;8527383;33;20213;-76
2022/04/05 06:17:39;;;;;;;12.02;5.22;;;;;;;4.55;91.53;99321.78;8526854;33;20541;-76
2022/04/05 06:22:44;;;;;;;9.88;5.00;;;;;;;4.77;91.14;99333.47;8526653;33;21854;-76
2022/04/05 06:27:48;;;;;;;9.65;4.50;;;;;;;4.85;90.86;99320.47;8526708;33;20377;-75
2022/04/05 06:32:52;;;;;;;8.60;5.38;;;;;;;4.77;92.21;99321.06;8527622;33;20402;-75
2022/04/05 06:37:55;;;;;;;9.60;5.40;;;;;;;4.96;90.80;99327.66;8523135;33;20603;-75
2022/04/05 06:42:59;;;;;;;9.13;4.85;;;;;;;5.08;90.49;99336.59;8525378;33;20131;-75
2022/04/05 06:48:06;;;;;;;8.00;4.43;;;;;;;4.89;90.69;99334.41;8522917;33;20409;-74
2022/04/05 06:53:11;;;;;;;8.27;5.55;;;;;;;4.89;90.56;99327.28;8527026;33;20317;-75
2022/04/05 06:58:14;;;;;;;9.60;4.88;;;;;;;5.17;90.65;99328.75;8525664;33;21081;-75
2022/04/05 07:03:18;;;;;;;11.38;5.95;;;;;;;5.20;90.92;99333.84;8526153;33;20418;-75
2022/04/05 07:08:22;;;;;;;10.60;5.88;;;;;;;4.96;91.18;99344.47;8522308;33;20259;-75
2022/04/05 07:13:25;;;;;;;8.50;4.97;;;;;;;5.38;90.60;99342.25;8525083;33;20515;-76
2022/04/05 07:18:29;;;;;;;9.13;5.57;;;;;;;5.44;90.04;99336.47;8524398;33;20429;-76
2022/04/05 07:23:32;;;;;;;11.20;5.78;;;;;;;5.31;89.90;99340.16;8523951;33;20411;-75
2022/04/05 07:28:35;;;;;;;9.15;5.47;;;;;;;5.43;89.59;99333.91;8524845;33;20383;-76
2022/04/05 07:33:40;;;;;;;8.30;4.85;;;;;;;5.81;88.73;99338.09;8602394;33;20436;-76
2022/04/05 07:38:43;;;;;;;7.70;4.45;;;;;;;6.01;89.26;99331.22;8595894;33;20178;-76
2022/04/05 07:43:46;;;;;;;6.70;4.30;;;;;;;5.45;88.59;99319.50;8599033;33;20205;-77
2022/04/05 07:48:51;;;;;;;6.78;4.03;;;;;;;5.75;87.80;99317.25;8602322;33;20612;-76
2022/04/05 07:53:54;;;;;;;6.10;4.50;;;;;;;6.00;86.88;99327.69;8600153;33;20491;-76
2022/04/05 07:58:57;;;;;;;7.57;4.32;;;;;;;6.08;87.75;99332.41;8600530;33;20154;-77
2022/04/05 08:04:01;;;;;;;7.22;4.32;;;;;;;6.36;86.87;99325.72;8598880;33;20216;-76
2022/04/05 08:09:05;;;;;;;8.60;5.03;;;;;;;6.42;85.55;99322.59;8595780;33;20924;-76
2022/04/05 08:14:08;;;;;;;6.32;3.97;;;;;;;6.24;85.51;99324.91;8598847;33;20395;-77
2022/04/05 08:19:12;;;;;;;5.60;3.95;;;;;;;6.21;84.75;99319.81;8596817;33;20608;-76
2022/04/05 08:24:15;;;;;;;6.40;4.10;;;;;;;6.30;85.19;99324.41;8601832;33;20410;-76
2022/04/05 08:29:18;;;;;;;7.45;3.97;;;;;;;6.29;85.56;99321.88;8598844;33;21935;-76
2022/04/05 08:34:23;;;;;;;6.40;3.90;;;;;;;6.37;86.02;99332.78;8602242;33;20454;-76
2022/04/05 08:39:28;;;;;;;7.53;3.15;;;;;;;6.42;85.08;99327.06;8601553;33;20168;-76
2022/04/05 08:44:31;;;;;;;4.07;3.15;;;;;;;6.18;84.93;99338.72;8605069;33;20199;-76
2022/04/05 08:49:36;;;;;;;7.13;3.67;;;;;;;6.46;84.46;99334.69;8609733;33;20477;-76
2022/04/05 08:54:39;;;;;;;5.18;3.75;;;;;;;6.27;85.19;99329.97;8605112;33;20135;-75
2022/04/05 08:59:42;;;;;;;8.52;4.40;;;;;;;6.28;85.23;99331.69;8601294;33;20186;-76
2022/04/05 09:04:47;;;;;;;6.32;4.00;;;;;;;6.52;85.23;99331.53;8602189;33;20232;-76
2022/04/05 09:10:11;;;;;;;7.18;3.63;;;;;;;5.97;86.69;99332.41;8595740;33;20617;-76
2022/04/05 09:15:25;;;;;;;5.00;3.40;;;;;;;6.29;86.61;99340.53;8600236;33;20582;-76
2022/04/05 09:20:30;;;;;;;6.40;3.83;;;;;;;6.43;87.43;99332.28;8606235;33;20471;-76
2022/04/05 09:25:33;;;;;;;6.75;3.95;;;;;;;6.52;87.86;99328.84;8627586;33;20591;-76
2022/04/05 09:30:37;;;;;;;5.20;3.30;;;;;;;6.57;87.88;99329.34;8600740;33;20437;-76
2022/04/05 09:35:44;;;;;;;6.65;3.78;;;;;;;6.88;87.56;99320.69;8600593;33;20941;-76
2022/04/05 09:40:52;;;;;;;6.72;3.95;;;;;;;6.58;86.47;99324.84;8601036;33;20183;-76
2022/04/05 09:46:06;;;;;;;6.40;3.75;;;;;;;6.34;87.73;99328.53;8598874;33;20199;-76
2022/04/05 09:51:14;;;;;;;4.93;2.72;;;;;;;6.85;87.40;99330.59;8615273;33;20440;-76
2022/04/05 09:56:20;;;;;;;5.68;3.50;;;;;;;6.56;86.19;99327.66;8615186;33;21971;-76
2022/04/05 10:01:26;;;;;;;5.68;3.22;;;;;;;6.37;87.06;99317.63;8620700;33;20148;-76
2022/04/05 10:06:31;;;;;;;4.65;3.33;;;;;;;6.42;88.68;99324.38;8620461;33;21605;-76
2022/04/05 10:11:38;;;;;;;7.78;3.28;;;;;;;6.62;88.36;99320.97;8620877;33;21430;-76
2022/04/05 10:16:41;;;;;;;5.78;3.65;;;;;;;6.56;89.18;99322.31;8619026;33;20162;-76
2022/04/05 10:21:48;;;;;;;4.28;3.03;;;;;;;6.56;89.92;99314.31;8620751;33;20131;-76
2022/04/05 10:26:53;;;;;;;7.28;4.22;;;;;;;6.67;91.33;99316.09;8621996;33;20244;-76
2022/04/05 10:32:05;;;;;;;6.35;4.10;;;;;;;6.72;91.02;99313.03;8626854;33;20429;-75
2022/04/05 10:37:16;;;;;;;4.55;3.00;;;;;;;6.68;91.16;99314.28;8625472;33;20896;-75
2022/04/05 10:42:25;;;;;;;5.20;3.20;;;;;;;6.71;91.23;99298.00;8629086;33;22424;-75
2022/04/05 10:47:29;;;;;;;4.22;3.38;;;;;;;6.50;91.44;99298.81;8625189;33;20181;-75
2022/04/05 10:53:17;;;;;;;4.40;2.95;;;;;;;6.83;92.41;99286.34;8627347;33;20139;-75
2022/04/05 10:58:20;;;;;;;5.15;3.10;;;;;;;7.06;91.76;99279.94;8623645;33;20241;-75
2022/04/05 11:03:23;;;;;;;3.63;2.47;;;;;;;6.95;91.10;99277.31;8622850;33;20731;-75
2022/04/05 11:08:29;;;;;;;3.47;1.90;;;;;;;6.88;92.02;99285.97;8624459;33;20157;-74
2022/04/05 11:13:36;;;;;;;2.58;2.17;;;;;;;6.76;92.58;99280.66;8619566;33;20428;-74
2022/04/05 11:18:43;;;;;;;2.35;2.13;;;;;;;6.78;92.06;99283.19;8620578;33;20522;-75
2022/04/05 11:23:51;;;;;;;2.03;1.88;;;;;;;6.99;92.32;99278.78;8612181;33;20594;-75
2022/04/05 11:28:55;;;;;;;1.70;1.60;;;;;;;7.15;91.79;99272.97;8604446;33;20139;-75
2022/04/05 11:33:58;;;;;;;4.45;2.30;;;;;;;6.95;92.67;99277.31;8602543;33;20404;-76
2022/04/05 11:39:03;;;;;;;2.65;1.88;;;;;;;6.97;92.82;99271.88;8603392;33;20418;-75
2022/04/05 11:44:06;;;;;;;3.75;2.60;;;;;;;7.13;92.53;99274.94;8599171;33;20194;-76
2022/04/05 11:49:13;;;;;;;4.70;3.20;;;;;;;7.41;91.40;99273.44;8597409;33;20228;-76
2022/04/05 11:54:22;;;;;;;5.93;3.55;;;;;;;7.44;90.17;99264.31;8614281;33;20474;-76
2022/04/05 11:59:28;;;;;;;8.48;4.63;;;;;;;7.86;88.12;99248.22;8598053;33;20440;-76
2022/04/05 12:04:32;;;;;;;6.65;4.20;;;;;;;7.67;88.01;99249.81;8599249;33;20617;-76
2022/04/05 12:09:37;;;;;;;7.18;5.07;;;;;;;7.87;88.56;99252.56;8601695;33;20561;-76
2022/04/05 12:21:46;;;;;;;7.00;5.40;;;;;;;7.16;89.96;99256.00;8603889;33;20249;-76
2022/04/05 12:26:51;;;;;;;7.25;4.95;;;;;;;8.10;87.70;99247.88;8598859;33;20836;-76
2022/04/05 12:31:55;;;;;;;9.52;5.43;;;;;;;8.12;86.64;99246.75;8625702;32;20436;-76
2022/04/05 12:37:02;;;;;;;7.13;4.63;;;;;;;8.11;86.28;99242.38;8624566;32;20163;-75
2022/04/05 12:42:09;;;;;;;9.30;5.20;;;;;;;8.59;84.13;99238.16;8623619;32;20150;-76
2022/04/05 12:47:15;;;;;;;8.38;5.35;;;;;;;8.97;82.82;99239.16;8648247;32;20425;-76
2022/04/05 12:52:22;;;;;;;9.07;5.05;;;;;;;9.51;80.65;99213.50;8657578;32;20901;-76
2022/04/05 12:57:32;;;;;;;7.78;4.82;;;;;;;9.32;79.62;99213.56;8659356;32;20434;-75
2022/04/05 13:02:40;;;;;;;9.57;5.45;;;;;;;9.40;81.52;99211.00;8666084;32;20599;-76
2022/04/05 13:07:52;;;;;;;8.95;6.35;;;;;;;9.82;80.75;99211.44;8615918;33;20463;-76
2022/04/05 13:12:57;;;;;;;8.15;5.10;;;;;;;9.19;81.43;99230.81;8621534;33;20421;-76
2022/04/05 13:18:06;;;;;;;7.25;4.68;;;;;;;9.43;78.61;99234.81;8620939;33;20182;-76
2022/04/05 13:23:12;;;;;;;6.53;4.13;;;;;;;10.26;76.94;99232.28;8623047;33;20337;-76
2022/04/05 13:28:16;;;;;;;9.02;4.10;;;;;;;10.93;74.81;99206.75;8607163;33;20147;-76
2022/04/05 13:33:19;;;;;;;4.80;3.72;;;;;;;10.49;74.30;99206.69;8620489;33;20535;-75
2022/04/05 13:38:23;;;;;;;5.68;3.70;;;;;;;11.43;71.61;99202.59;8622670;33;20220;-75
2022/04/05 13:43:27;;;;;;;4.57;2.85;;;;;;;11.55;70.51;99216.63;8621546;33;20210;-75
2022/04/05 13:48:31;;;;;;;4.25;3.10;;;;;;;11.07;75.14;99197.28;8619416;33;20428;-75
2022/04/05 13:53:34;;;;;;;5.20;2.92;;;;;;;11.61;69.55;99170.28;8617502;33;21195;-75
2022/04/05 13:58:39;;;;;;;3.38;2.80;;;;;;;11.80;68.31;99185.34;8619112;33;20426;-75
2022/04/05 14:03:42;;;;;;;3.63;3.00;;;;;;;11.20;69.70;99200.44;8618593;33;20677;-75
2022/04/05 14:08:46;;;;;;;5.95;3.97;;;;;;;10.96;70.98;99176.03;8621852;33;20431;-75
2022/04/05 14:13:50;;;;;;;4.80;2.60;;;;;;;10.25;73.39;99174.22;8625163;33;20161;-75
2022/04/05 14:18:53;;;;;;;2.97;2.40;;;;;;;10.72;71.93;99182.03;8625118;33;20413;-75
2022/04/05 14:24:08;;;;;;;4.57;3.22;;;;;;;9.88;73.66;99183.19;8626361;33;20535;-74
2022/04/05 14:29:15;;;;;;;4.57;3.33;;;;;;;9.67;76.97;99186.91;8627613;33;21042;-74
2022/04/05 14:34:19;;;;;;;4.28;2.83;;;;;;;8.06;91.78;99192.94;8632239;33;20477;-76
2022/04/05 14:39:22;;;;;;;7.85;3.97;;;;;;;8.15;96.03;99187.63;8630537;33;20143;-76
2022/04/05 14:44:27;;;;;;;4.75;3.17;;;;;;;8.53;93.70;99188.72;8632919;33;20665;-76
2022/04/05 14:49:30;;;;;;;5.25;3.30;;;;;;;8.50;91.91;99185.44;8630292;33;20329;-76
2022/04/05 14:54:34;;;;;;;5.38;3.90;;;;;;;9.13;90.96;99191.16;8624697;33;20538;-76
2022/04/05 14:59:38;;;;;;;7.10;4.93;;;;;;;8.66;89.62;99185.72;8627247;33;20592;-76
2022/04/05 15:04:41;;;;;;;8.05;5.40;;;;;;;9.04;88.42;99184.84;8611411;33;20446;-76
2022/04/05 15:09:44;;;;;;;10.10;5.47;;;;;;;8.86;86.98;99186.59;8610996;33;20182;-76
2022/04/05 15:14:49;;;;;;;6.82;4.40;;;;;;;8.82;85.53;99195.88;8609422;33;20515;-76
2022/04/05 15:19:52;;;;;;;10.55;5.80;;;;;;;9.05;84.92;99178.53;8544669;33;20447;-76
2022/04/05 15:24:55;;;;;;;9.38;6.10;;;;;;;8.98;84.58;99180.06;8545208;33;20559;-76
2022/04/05 15:30:01;;;;;;;10.32;5.85;;;;;;;8.94;84.83;99186.72;8544735;33;20464;-77
2022/04/05 15:35:05;;;;;;;9.25;5.60;;;;;;;9.21;84.93;99183.25;8544409;33;20176;-76
2022/04/05 15:40:12;;;;;;;5.57;3.33;;;;;;;9.13;82.63;99188.50;8560680;33;21938;-76
2022/04/05 15:45:23;;;;;;;6.38;4.22;;;;;;;8.82;84.31;99182.50;8578860;32;20409;-76
2022/04/05 15:50:33;;;;;;;9.90;5.60;;;;;;;8.97;83.61;99173.03;8651781;32;20254;-77
2022/04/05 15:55:47;;;;;;;7.40;4.53;;;;;;;8.81;83.25;99170.94;8639263;33;20396;-77
2022/04/05 16:00:52;;;;;;;6.60;4.30;;;;;;;9.00;83.14;99185.28;8622120;33;20429;-78
2022/04/05 16:06:01;;;;;;;6.85;3.92;;;;;;;9.02;82.11;99175.25;8549290;33;21072;-77
2022/04/05 16:11:04;;;;;;;5.72;4.10;;;;;;;8.87;84.17;99190.09;8605527;33;20972;-78
2022/04/05 16:16:09;;;;;;;4.38;3.45;;;;;;;9.01;82.60;99192.34;8605294;33;20448;-78
2022/04/05 16:21:13;;;;;;;5.38;3.92;;;;;;;9.02;82.75;99180.63;8606619;33;21155;-77
2022/04/05 16:26:16;;;;;;;5.72;4.05;;;;;;;9.01;82.48;99171.75;8606242;33;20143;-78
2022/04/05 16:31:20;;;;;;;5.60;3.15;;;;;;;8.60;84.48;99176.44;8607119;33;20175;-77
2022/04/05 16:36:23;;;;;;;4.57;3.33;;;;;;;8.73;84.34;99192.22;8605793;33;22055;-78
2022/04/05 16:41:26;;;;;;;4.40;3.47;;;;;;;8.71;83.27;99188.84;8605199;33;20413;-77
2022/04/05 16:46:31;;;;;;;3.47;3.05;;;;;;;8.78;82.75;99184.63;8607967;33;20416;-77
2022/04/05 16:51:35;;;;;;;6.30;2.97;;;;;;;8.58;83.01;99199.84;8610835;33;20422;-77
2022/04/05 16:56:39;;;;;;;5.82;3.58;;;;;;;8.49;82.59;99189.97;8610359;33;20187;-77
2022/04/05 17:01:44;;;;;;;5.03;3.30;;;;;;;8.86;81.21;99196.44;8610357;33;20581;-77
2022/04/05 17:06:47;;;;;;;5.25;3.65;;;;;;;8.80;82.64;99189.81;8599744;33;20439;-77
2022/04/05 17:11:51;;;;;;;6.03;3.53;;;;;;;8.43;86.45;99195.84;8600745;33;20520;-77
2022/04/05 17:16:59;;;;;;;5.85;3.88;;;;;;;7.65;93.57;99198.34;8602545;33;20631;-78
2022/04/05 17:22:02;;;;;;;4.97;3.70;;;;;;;7.36;95.94;99189.34;8612689;33;20147;-78
2022/04/05 17:27:06;;;;;;;5.97;4.38;;;;;;;7.40;96.91;99172.88;8622933;33;21755;-79
2022/04/05 17:32:10;;;;;;;7.13;4.80;;;;;;;7.66;96.03;99201.84;8607286;33;20246;-78
2022/04/05 17:37:15;;;;;;;7.03;4.50;;;;;;;7.67;96.29;99188.34;8605750;33;20448;-78
2022/04/05 17:42:18;;;;;;;7.68;4.93;;;;;;;7.49;96.64;99200.66;8613888;33;20186;-78
2022/04/05 17:47:22;;;;;;;6.82;4.75;;;;;;;7.38;97.04;99211.44;8616118;33;20270;-77
2022/04/05 17:52:26;;;;;;;7.97;5.97;;;;;;;7.75;95.65;99198.34;8619267;33;20474;-78
2022/04/05 17:57:42;;;;;;;8.40;5.85;;;;;;;7.63;96.21;99202.13;8624393;33;20446;-78
2022/04/05 18:02:46;;;;;;;8.57;5.57;;;;;;;7.69;95.25;99196.22;8618519;33;20140;-78
2022/04/05 18:07:49;;;;;;;6.50;4.50;;;;;;;7.68;93.91;99211.44;8629579;33;20433;-79
2022/04/05 18:12:58;;;;;;;8.05;5.15;;;;;;;7.49;94.26;99198.81;8631365;33;20993;-79
2022/04/05 18:18:03;;;;;;;9.85;6.32;;;;;;;7.71;94.88;99211.16;8631072;33;21192;-78
2022/04/05 18:23:06;;;;;;;9.10;6.22;;;;;;;7.89;94.52;99215.84;8594029;33;20496;-78
2022/04/05 18:28:09;;;;;;;11.65;7.32;;;;;;;7.77;95.26;99223.13;8577282;33;20410;-79
2022/04/05 18:33:14;;;;;;;12.45;7.40;;;;;;;7.79;96.43;99229.19;8622230;33;20456;-78
2022/04/05 18:38:19;;;;;;;12.00;7.38;;;;;;;7.55;97.37;99229.50;8618991;33;20290;-77
2022/04/05 18:43:22;;;;;;;1.05;1.05;;;;;;;7.37;99.24;99229.25;8609094;33;20837;-77
2022/04/05 18:48:27;;;;;;;0.82;0.82;;;;;;;7.43;99.33;99241.25;8607621;33;20423;-77
2022/04/05 18:53:32;;;;;;;0.50;0.50;;;;;;;7.28;99.77;99232.72;8604315;33;21057;-77
2022/04/05 18:58:35;;;;;;;0.52;0.52;;;;;;;7.46;98.96;99240.97;8606151;33;21830;-76
2022/04/05 19:03:40;;;;;;;1.60;1.20;;;;;;;7.08;100.00;99245.13;8613760;33;20417;-78
2022/04/05 19:08:46;;;;;;;0.50;0.50;;;;;;;7.35;99.46;99251.75;8607824;33;20415;-78
2022/04/05 19:13:49;;;;;;;0.43;0.43;;;;;;;7.35;100.00;99255.28;8607735;33;20152;-78
2022/04/05 19:18:54;;;;;;;0.43;0.43;;;;;;;7.41;99.67;99267.25;8605800;33;20444;-77
2022/04/05 19:23:58;;;;;;;0.82;0.82;;;;;;;7.66;98.36;99263.31;8608297;33;20140;-78
2022/04/05 19:29:01;;;;;;;8.90;1.70;;;;;;;7.39;99.00;99263.88;8606857;33;20460;-78
2022/04/05 19:34:06;;;;;;;0.82;0.73;;;;;;;7.34;98.80;99261.59;8606982;33;20497;-78
2022/04/05 19:39:09;;;;;;;0.60;0.60;;;;;;;7.42;99.14;99264.44;8605178;33;20198;-77
2022/04/05 19:44:12;;;;;;;3.97;1.05;;;;;;;7.24;99.32;99266.88;8609871;33;20237;-78
2022/04/05 19:49:16;;;;;;;0.73;0.73;;;;;;;7.17;100.00;99264.84;8597011;33;20202;-79
2022/04/05 19:54:19;;;;;;;0.70;0.70;;;;;;;7.28;99.65;99268.28;8607466;33;20420;-78
2022/04/05 19:59:23;;;;;;;0.82;0.82;;;;;;;7.49;99.31;99270.13;8605819;33;21212;-78
2022/04/05 20:04:28;;;;;;;18.85;11.80;;;;;;;7.34;99.56;99266.09;8608172;33;20407;-77
2022/04/05 20:09:31;;;;;;;24.02;14.48;;;;;;;7.28;99.56;99254.94;8614342;33;20441;-77
2022/04/05 20:14:34;;;;;;;23.05;12.00;;;;;;;7.32;99.26;99252.00;8604521;33;21054;-78
2022/04/05 20:19:39;;;;;;;26.40;15.68;;;;;;;7.45;98.83;99249.97;8607406;33;20587;-77
2022/04/05 20:24:42;;;;;;;26.15;14.05;;;;;;;7.27;99.11;99249.75;8614699;33;20140;-78
2022/04/05 20:29:45;;;;;;;28.30;15.60;;;;;;;7.34;99.11;99247.38;8612521;33;20175;-79
2022/04/05 20:34:49;;;;;;;32.13;16.75;;;;;;;7.45;99.13;99237.47;8612238;33;20748;-79
2022/04/05 20:39:57;;;;;;;25.95;14.65;;;;;;;7.33;98.80;99229.66;8614036;33;20433;-78
2022/04/05 20:45:00;;;;;;;26.90;14.20;;;;;;;7.37;98.81;99228.41;8611745;33;20491;-78
2022/04/05 20:50:06;;;;;;;25.98;12.55;;;;;;;7.43;98.03;99233.22;8614379;33;20124;-77
2022/04/05 20:55:11;;;;;;;27.42;13.80;;;;;;;7.33;98.44;99230.50;8609368;33;20449;-77
2022/04/05 21:00:15;;;;;;;28.17;16.35;;;;;;;7.53;98.04;99236.81;8610771;33;20185;-77
2022/04/05 21:05:20;;;;;;;29.73;15.88;;;;;;;7.54;97.72;99229.63;8612146;33;20435;-77
2022/04/05 21:10:24;;;;;;;33.00;17.40;;;;;;;7.47;97.66;99240.84;8609203;33;20938;-77
2022/04/05 21:15:27;;;;;;;33.53;17.83;;;;;;;7.45;97.32;99226.78;8608973;33;20132;-77
2022/04/05 21:20:32;;;;;;;35.45;19.42;;;;;;;7.57;96.45;99238.25;8613792;33;20194;-77
2022/04/05 21:25:35;;;;;;;28.80;13.95;;;;;;;7.47;96.07;99222.16;8604017;33;20505;-77
2022/04/05 21:30:38;;;;;;;30.83;16.35;;;;;;;7.61;95.82;99222.78;8603039;33;20521;-77
2022/04/05 21:35:42;;;;;;;28.15;15.43;;;;;;;7.58;94.72;99225.72;8602360;33;20225;-77
2022/04/05 21:40:45;;;;;;;29.33;15.02;;;;;;;7.54;94.90;99221.59;8603561;33;20455;-76
2022/04/05 21:45:49;;;;;;;29.95;17.73;;;;;;;7.49;95.64;99220.19;8602271;33;20540;-76
2022/04/05 21:50:54;;;;;;;26.23;14.20;;;;;;;7.59;93.93;99222.06;8604577;33;20904;-77
2022/04/05 21:55:58;;;;;;;29.13;15.07;;;;;;;7.59;93.92;99219.38;8607089;33;20565;-77
2022/04/05 22:01:01;;;;;;;31.35;17.88;;;;;;;7.50;94.62;99224.56;8652854;32;20232;-77
2022/04/05 22:06:05;;;;;;;17.15;9.10;;;;;;;7.25;94.75;99219.66;8665833;32;20433;-77
2022/04/05 22:11:09;;;;;;;29.92;14.52;;;;;;;7.50;94.00;99223.72;8669831;32;20401;-78
2022/04/05 22:16:12;;;;;;;26.90;15.95;;;;;;;7.39;94.31;99221.97;8667472;32;21543;-77
2022/04/05 22:21:18;;;;;;;22.23;10.60;;;;;;;7.43;94.17;99222.53;8668278;32;20566;-77
2022/04/05 22:26:21;;;;;;;28.17;15.13;;;;;;;7.52;93.51;99226.25;8668128;32;20519;-77
2022/04/05 22:31:25;;;;;;;28.50;15.65;;;;;;;7.67;92.18;99208.88;8667679;32;21850;-77
2022/04/05 22:36:30;;;;;;;29.33;15.93;;;;;;;7.55;92.76;99226.00;8668413;32;20406;-78
2022/04/05 22:41:33;;;;;;;30.25;16.50;;;;;;;7.49;92.50;99217.53;8667288;32;20299;-78
2022/04/05 22:46:37;;;;;;;29.23;16.42;;;;;;;7.51;92.81;99222.72;8670559;32;20415;-77
2022/04/05 22:52:03;;;;;;;30.52;16.65;;;;;;;7.37;92.75;99220.41;8662122;32;20452;-78
2022/04/05 22:57:06;;;;;;;28.10;13.45;;;;;;;7.26;92.52;99218.66;8667401;32;20198;-77
2022/04/05 23:02:10;;;;;;;18.67;9.20;;;;;;;7.34;92.18;99210.81;8680741;32;20871;-78
2022/04/05 23:07:15;;;;;;;27.73;15.93;;;;;;;7.40;91.43;99196.09;8678733;32;20127;-78
2022/04/05 23:12:18;;;;;;;28.38;14.68;;;;;;;7.26;91.05;99215.97;8669646;32;21725;-78
2022/04/05 23:17:21;;;;;;;21.48;9.68;;;;;;;7.43;90.50;99210.06;8668293;32;20480;-78
2022/04/05 23:22:26;;;;;;;25.77;15.15;;;;;;;7.35;91.26;99209.00;8662856;32;20427;-78
2022/04/05 23:27:29;;;;;;;20.55;10.70;;;;;;;7.24;91.70;99216.13;8574697;33;20190;-78
2022/04/05 23:32:32;;;;;;;28.80;14.88;;;;;;;7.30;91.54;99206.75;8547364;33;20199;-78
2022/04/05 23:37:36;;;;;;;29.88;15.57;;;;;;;7.30;91.26;99216.59;8551054;33;21437;-78
2022/04/05 23:42:39;;;;;;;24.67;11.23;;;;;;;7.15;91.29;99219.56;8548012;33;20512;-78
2022/04/05 23:47:42;;;;;;;28.55;14.40;;;;;;;7.32;90.57;99206.59;8550049;33;21944;-78
2022/04/05 23:52:47;;;;;;;25.33;15.55;;;;;;;7.16;90.89;99217.72;8546199;33;20410;-78
2022/04/05 23:57:50;;;;;;;24.15;13.80;;;;;;;7.21;90.27;99218.19;8543236;33;20810;-77
